createdAt,value
2023-05-13T00:00:55.761Z,15.86
2023-05-13T00:03:22.539Z,15.83
2023-05-13T00:05:49.339Z,15.76
2023-05-13T00:08:16.592Z,15.71
2023-05-13T00:10:43.166Z,15.67
2023-05-13T00:13:09.747Z,15.63
2023-05-13T00:15:36.298Z,15.61
2023-05-13T00:18:03.145Z,15.56
2023-05-13T00:20:29.745Z,15.51
2023-05-13T00:22:56.319Z,15.44
2023-05-13T00:25:23.137Z,15.40
2023-05-13T00:27:50.000Z,15.36
2023-05-13T00:30:23.497Z,15.28
2023-05-13T00:32:51.869Z,15.26
2023-05-13T00:35:18.529Z,15.23
2023-05-13T00:37:45.166Z,15.19
2023-05-13T00:40:21.898Z,15.16
2023-05-13T00:42:49.133Z,15.13
2023-05-13T00:45:15.975Z,15.12
2023-05-13T00:47:44.039Z,15.09
2023-05-13T00:50:11.745Z,15.05
2023-05-13T00:52:40.074Z,15.04
2023-05-13T00:55:08.405Z,15.01
2023-05-13T00:57:36.022Z,15.01
2023-05-13T01:00:03.780Z,14.96
2023-05-13T01:02:50.316Z,14.92
2023-05-13T01:05:32.362Z,14.86
2023-05-13T01:08:13.903Z,14.76
2023-05-13T01:10:55.955Z,14.69
2023-05-13T01:13:36.893Z,14.63
2023-05-13T01:16:11.111Z,14.54
2023-05-13T01:18:51.078Z,14.50
2023-05-13T01:21:25.150Z,14.45
2023-05-13T01:23:51.640Z,14.40
2023-05-13T01:26:18.248Z,14.37
2023-05-13T01:28:44.958Z,14.33
2023-05-13T01:31:13.701Z,14.28
2023-05-13T01:33:41.912Z,14.25
2023-05-13T01:36:09.641Z,14.21
2023-05-13T01:38:38.083Z,14.17
2023-05-13T01:41:05.130Z,14.14
2023-05-13T01:43:31.588Z,14.10
2023-05-13T01:46:00.630Z,14.05
2023-05-13T01:48:27.298Z,13.97
2023-05-13T01:50:55.036Z,13.94
2023-05-13T01:53:21.714Z,13.88
2023-05-13T01:55:48.269Z,13.84
2023-05-13T01:58:16.508Z,13.81
2023-05-13T02:00:43.267Z,13.78
2023-05-13T02:03:10.065Z,13.74
2023-05-13T02:05:37.031Z,13.72
2023-05-13T02:08:03.995Z,13.67
2023-05-13T02:10:31.176Z,13.63
2023-05-13T02:12:57.655Z,13.59
2023-05-13T02:15:24.319Z,13.55
2023-05-13T02:17:51.569Z,13.52
2023-05-13T02:20:18.267Z,13.50
2023-05-13T02:22:44.850Z,13.44
2023-05-13T02:25:11.532Z,13.40
2023-05-13T02:27:38.221Z,13.35
2023-05-13T02:30:05.441Z,13.28
2023-05-13T02:32:32.111Z,13.25
2023-05-13T02:34:58.677Z,13.18
2023-05-13T02:37:25.196Z,13.14
2023-05-13T02:39:52.050Z,13.09
2023-05-13T02:42:18.819Z,13.07
2023-05-13T02:44:46.170Z,13.03
2023-05-13T02:47:12.809Z,12.94
2023-05-13T02:49:39.350Z,12.90
2023-05-13T02:52:06.519Z,12.86
2023-05-13T02:54:33.085Z,12.83
2023-05-13T02:56:59.778Z,12.79
2023-05-13T02:59:26.404Z,12.73
2023-05-13T03:01:53.058Z,12.72
2023-05-13T03:04:19.666Z,12.69
2023-05-13T03:06:47.337Z,12.64
2023-05-13T03:09:14.204Z,12.64
2023-05-13T03:11:41.183Z,12.57
2023-05-13T03:14:08.021Z,12.54
2023-05-13T03:16:34.734Z,12.50
2023-05-13T03:19:01.243Z,12.46
2023-05-13T03:21:28.033Z,12.44
2023-05-13T03:23:54.706Z,12.42
2023-05-13T03:26:21.863Z,12.40
2023-05-13T03:28:48.654Z,12.37
2023-05-13T03:31:15.293Z,12.35
2023-05-13T03:33:41.950Z,12.31
2023-05-13T03:36:08.706Z,12.29
2023-05-13T03:38:35.338Z,12.26
2023-05-13T03:41:02.156Z,12.22
2023-05-13T03:43:28.775Z,12.18
2023-05-13T03:45:55.391Z,12.14
2023-05-13T03:48:21.929Z,12.11
2023-05-13T03:50:48.607Z,12.07
2023-05-13T03:53:16.431Z,12.04
2023-05-13T03:55:43.536Z,12.02
2023-05-13T03:58:16.173Z,11.97
2023-05-13T04:00:46.744Z,11.92
2023-05-13T04:03:16.329Z,11.92
2023-05-13T04:05:44.328Z,11.88
2023-05-13T04:08:11.406Z,11.87
2023-05-13T04:10:38.061Z,11.85
2023-05-13T04:13:04.582Z,11.83
2023-05-13T04:15:34.104Z,11.83
2023-05-13T04:18:00.868Z,11.83
2023-05-13T04:20:27.479Z,11.82
2023-05-13T04:22:54.138Z,11.80
2023-05-13T04:25:20.748Z,11.80
2023-05-13T04:27:50.768Z,11.79
2023-05-13T04:30:24.082Z,11.79
2023-05-13T04:32:51.360Z,11.79
2023-05-13T04:35:18.208Z,11.78
2023-05-13T04:37:44.991Z,11.77
2023-05-13T04:40:11.906Z,11.78
2023-05-13T04:42:38.445Z,11.77
2023-05-13T04:45:13.669Z,11.76
2023-05-13T04:47:40.315Z,11.77
2023-05-13T04:50:07.640Z,11.76
2023-05-13T04:52:34.791Z,11.78
2023-05-13T04:57:55.874Z,11.80
2023-05-13T05:00:22.905Z,11.79
2023-05-13T05:02:49.675Z,11.81
2023-05-13T05:05:18.219Z,11.84
2023-05-13T05:07:45.173Z,11.87
2023-05-13T05:10:11.819Z,11.90
2023-05-13T05:12:38.530Z,11.93
2023-05-13T05:15:06.177Z,12.01
2023-05-13T05:17:33.923Z,12.09
2023-05-13T05:20:00.841Z,12.19
2023-05-13T05:22:27.451Z,12.26
2023-05-13T05:24:54.071Z,12.37
2023-05-13T05:27:20.780Z,12.43
2023-05-13T05:29:47.360Z,12.51
2023-05-13T05:32:16.120Z,12.53
2023-05-13T05:34:42.770Z,12.61
2023-05-13T05:37:09.424Z,12.68
2023-05-13T05:39:36.483Z,12.80
2023-05-13T05:42:03.236Z,12.93
2023-05-13T05:44:30.116Z,13.06
2023-05-13T05:46:56.551Z,13.13
2023-05-13T05:49:23.071Z,13.28
2023-05-13T05:51:49.715Z,13.43
2023-05-13T05:54:16.138Z,13.54
2023-05-13T05:56:42.872Z,13.72
2023-05-13T05:59:09.354Z,13.81
2023-05-13T06:01:36.973Z,13.86
2023-05-13T06:04:04.513Z,13.89
2023-05-13T06:06:32.451Z,14.08
2023-05-13T06:08:59.073Z,14.13
2023-05-13T06:11:25.733Z,14.07
2023-05-13T06:13:53.793Z,14.24
2023-05-13T06:16:20.570Z,14.30
2023-05-13T06:18:47.547Z,14.43
2023-05-13T06:21:14.203Z,14.48
2023-05-13T06:23:41.062Z,14.49
2023-05-13T06:26:07.759Z,14.52
2023-05-13T06:28:34.759Z,14.56
2023-05-13T06:31:01.516Z,14.60
2023-05-13T06:33:28.334Z,14.63
2023-05-13T06:35:54.982Z,14.67
2023-05-13T06:38:21.870Z,14.75
2023-05-13T06:40:48.593Z,14.90
2023-05-13T06:43:16.713Z,14.93
2023-05-13T06:45:44.814Z,15.12
2023-05-13T06:48:11.566Z,15.16
2023-05-13T06:50:38.352Z,15.29
2023-05-13T06:53:05.136Z,15.51
2023-05-13T06:55:31.928Z,15.64
2023-05-13T06:57:58.652Z,15.76
2023-05-13T07:00:25.293Z,15.75
2023-05-13T07:02:54.299Z,15.98
2023-05-13T07:05:21.087Z,16.08
2023-05-13T07:07:47.789Z,15.92
2023-05-13T07:10:14.390Z,16.00
2023-05-13T07:12:41.143Z,16.15
2023-05-13T07:15:08.539Z,16.22
2023-05-13T07:17:35.294Z,16.33
2023-05-13T07:20:02.131Z,16.44
2023-05-13T07:22:28.800Z,16.55
2023-05-13T07:25:01.022Z,16.61
2023-05-13T07:27:27.856Z,16.51
2023-05-13T07:29:58.376Z,16.52
2023-05-13T07:32:24.989Z,16.59
2023-05-13T07:34:54.900Z,16.69
2023-05-13T07:37:21.566Z,16.68
2023-05-13T07:39:49.278Z,16.71
2023-05-13T07:42:16.581Z,16.69
2023-05-13T07:44:43.175Z,16.83
2023-05-13T07:47:10.221Z,16.72
2023-05-13T07:49:36.967Z,16.70
2023-05-13T07:52:03.866Z,16.84
2023-05-13T07:54:30.842Z,16.85
2023-05-13T07:56:57.528Z,16.90
2023-05-13T07:59:24.114Z,17.02
2023-05-13T08:01:50.912Z,17.12
2023-05-13T08:04:18.672Z,17.22
2023-05-13T08:06:45.596Z,17.33
2023-05-13T08:09:12.557Z,17.39
2023-05-13T08:11:39.148Z,17.53
2023-05-13T08:14:06.095Z,17.46
2023-05-13T08:16:36.278Z,17.53
2023-05-13T08:19:03.735Z,17.57
2023-05-13T08:21:32.099Z,17.62
2023-05-13T08:23:59.068Z,17.67
2023-05-13T08:26:25.685Z,17.65
2023-05-13T08:28:54.736Z,17.71
2023-05-13T08:31:22.069Z,17.67
2023-05-13T08:33:48.704Z,17.77
2023-05-13T08:36:15.817Z,17.82
2023-05-13T08:38:43.660Z,17.85
2023-05-13T08:41:13.144Z,17.83
2023-05-13T08:43:40.060Z,17.98
2023-05-13T08:46:09.601Z,18.08
2023-05-13T08:48:38.315Z,18.15
2023-05-13T08:51:05.535Z,18.27
2023-05-13T08:53:32.504Z,18.37
2023-05-13T08:56:02.688Z,18.41
2023-05-13T08:58:29.474Z,18.46
2023-05-13T09:00:56.808Z,18.40
2023-05-13T09:03:23.841Z,18.61
2023-05-13T09:05:50.756Z,18.75
2023-05-13T09:08:17.360Z,18.79
2023-05-13T09:10:44.465Z,18.77
2023-05-13T09:13:14.464Z,18.86
2023-05-13T09:15:45.628Z,18.99
2023-05-13T09:18:14.772Z,19.13
2023-05-13T09:20:43.470Z,19.11
2023-05-13T09:23:11.819Z,19.10
2023-05-13T09:25:39.179Z,19.15
2023-05-13T09:28:07.974Z,19.24
2023-05-13T09:30:36.974Z,19.33
2023-05-13T09:33:13.747Z,19.43
2023-05-13T09:35:41.656Z,19.56
2023-05-13T09:38:21.766Z,19.57
2023-05-13T09:40:54.494Z,19.65
2023-05-13T09:43:26.053Z,19.81
2023-05-13T09:45:57.079Z,19.80
2023-05-13T09:48:27.063Z,19.86
2023-05-13T09:50:55.084Z,20.00
2023-05-13T09:53:22.524Z,20.03
2023-05-13T09:55:54.477Z,20.02
2023-05-13T09:58:22.318Z,19.84
2023-05-13T10:00:49.193Z,20.04
2023-05-13T10:03:16.493Z,20.16
2023-05-13T10:05:43.854Z,20.19
2023-05-13T10:08:13.884Z,20.21
2023-05-13T10:10:46.183Z,20.28
2023-05-13T10:13:16.509Z,20.36
2023-05-13T10:15:51.840Z,20.34
2023-05-13T10:18:20.023Z,20.49
2023-05-13T10:20:47.486Z,20.51
2023-05-13T10:23:14.360Z,20.64
2023-05-13T10:25:43.044Z,20.70
2023-05-13T10:28:10.937Z,20.74
2023-05-13T10:30:38.990Z,20.82
2023-05-13T10:33:05.948Z,20.74
2023-05-13T10:35:38.619Z,20.77
2023-05-13T10:38:17.476Z,20.78
2023-05-13T10:41:01.832Z,20.91
2023-05-13T10:43:30.286Z,20.91
2023-05-13T10:45:59.924Z,20.96
2023-05-13T10:48:27.205Z,20.94
2023-05-13T10:51:11.528Z,20.90
2023-05-13T10:53:52.773Z,21.06
2023-05-13T10:56:22.109Z,21.13
2023-05-13T10:58:59.864Z,21.26
2023-05-13T11:01:44.140Z,21.29
2023-05-13T11:04:20.080Z,21.35
2023-05-13T11:06:48.658Z,21.50
2023-05-13T11:09:29.913Z,21.54
2023-05-13T11:12:00.470Z,21.62
2023-05-13T11:14:30.358Z,21.67
2023-05-13T11:17:04.369Z,21.73
2023-05-13T11:19:36.474Z,21.77
2023-05-13T11:22:12.866Z,21.81
2023-05-13T11:24:40.934Z,21.85
2023-05-13T11:27:18.211Z,21.97
2023-05-13T11:29:56.299Z,22.02
2023-05-13T11:39:18.081Z,22.31
2023-05-13T11:41:50.223Z,22.41
2023-05-13T11:44:18.867Z,22.39
2023-05-13T11:47:01.854Z,22.43
2023-05-13T11:49:42.383Z,22.33
2023-05-13T11:52:10.284Z,22.52
2023-05-13T11:57:48.821Z,22.61
2023-05-13T12:00:15.887Z,22.65
2023-05-13T12:02:44.174Z,22.67
2023-05-13T12:05:12.193Z,22.76
2023-05-13T12:07:39.862Z,22.78
2023-05-13T12:10:07.906Z,22.75
2023-05-13T12:12:39.229Z,22.96
2023-05-13T12:15:08.453Z,22.98
2023-05-13T12:17:35.660Z,23.06
2023-05-13T12:20:16.619Z,23.06
2023-05-13T12:22:43.292Z,23.08
2023-05-13T12:28:26.446Z,23.18
2023-05-13T12:31:04.492Z,23.35
2023-05-13T12:33:34.258Z,23.35
2023-05-13T12:36:21.318Z,23.48
2023-05-13T12:39:08.950Z,23.50
2023-05-13T12:41:40.459Z,23.48
2023-05-13T12:44:14.450Z,23.50
2023-05-13T12:46:51.905Z,23.58
2023-05-13T12:49:18.952Z,23.58
2023-05-13T12:51:45.588Z,23.62
2023-05-13T12:54:12.544Z,23.68
2023-05-13T12:56:42.106Z,23.60
2023-05-13T12:59:09.247Z,23.50
2023-05-13T13:01:37.187Z,23.66
2023-05-13T13:04:05.695Z,23.62
2023-05-13T13:06:32.902Z,23.74
2023-05-13T13:08:59.887Z,23.68
2023-05-13T13:11:27.410Z,23.83
2023-05-13T13:13:54.226Z,23.82
2023-05-13T13:16:22.073Z,23.81
2023-05-13T13:18:52.407Z,23.90
2023-05-13T13:21:20.008Z,23.97
2023-05-13T13:23:46.739Z,24.00
2023-05-13T13:26:16.343Z,24.04
2023-05-13T13:28:50.391Z,23.90
2023-05-13T13:31:17.354Z,23.96
2023-05-13T13:33:44.052Z,23.81
2023-05-13T13:36:10.766Z,23.86
2023-05-13T13:38:37.364Z,23.92
2023-05-13T13:41:04.094Z,23.88
2023-05-13T13:43:31.274Z,23.94
2023-05-13T13:45:57.939Z,23.88
2023-05-13T13:48:25.270Z,23.92
2023-05-13T13:50:53.118Z,23.91
2023-05-13T13:53:19.920Z,23.96
2023-05-13T13:55:46.616Z,23.89
2023-05-13T13:58:14.528Z,23.99
2023-05-13T14:00:41.126Z,24.06
2023-05-13T14:03:07.856Z,24.07
2023-05-13T14:05:34.538Z,24.14
2023-05-13T14:08:01.745Z,24.14
2023-05-13T14:13:22.526Z,24.14
2023-05-13T14:15:49.486Z,24.19
2023-05-13T14:18:15.968Z,23.98
2023-05-13T14:20:42.834Z,24.17
2023-05-13T14:23:09.549Z,24.20
2023-05-13T14:28:30.383Z,24.00
2023-05-13T14:30:57.000Z,24.07
2023-05-13T14:33:23.690Z,24.02
2023-05-13T14:35:51.229Z,23.98
2023-05-13T14:38:18.092Z,23.83
2023-05-13T14:40:44.892Z,23.94
2023-05-13T14:43:11.636Z,24.05
2023-05-13T14:45:38.468Z,24.14
2023-05-13T14:48:05.086Z,24.13
2023-05-13T14:50:32.599Z,24.18
2023-05-13T14:52:59.840Z,23.92
2023-05-13T14:55:26.808Z,24.02
2023-05-13T14:57:54.033Z,24.13
2023-05-13T15:03:16.120Z,24.20
2023-05-13T15:05:44.105Z,24.26
2023-05-13T15:08:11.224Z,24.35
2023-05-13T15:10:37.763Z,24.24
2023-05-13T15:13:04.518Z,24.17
2023-05-13T15:18:26.506Z,24.12
2023-05-13T15:20:53.357Z,24.18
2023-05-13T15:23:19.971Z,24.08
2023-05-13T15:25:47.061Z,24.05
2023-05-13T15:28:13.721Z,23.93
2023-05-13T15:30:40.638Z,24.07
2023-05-13T15:33:07.550Z,24.06
2023-05-13T15:35:34.703Z,24.14
2023-05-13T15:38:01.352Z,24.14
2023-05-13T15:40:27.910Z,24.16
2023-05-13T15:42:55.502Z,24.22
2023-05-13T15:45:22.086Z,24.17
2023-05-13T15:47:48.771Z,24.18
2023-05-13T15:50:15.436Z,24.13
2023-05-13T15:52:42.250Z,24.15
2023-05-13T15:55:08.817Z,24.19
2023-05-13T15:57:35.593Z,24.12
2023-05-13T16:00:02.624Z,24.09
2023-05-13T16:02:36.772Z,24.10
2023-05-13T16:05:03.772Z,24.17
2023-05-13T16:07:30.962Z,24.01
2023-05-13T16:09:57.620Z,23.87
2023-05-13T16:12:24.382Z,23.94
2023-05-13T16:14:51.258Z,23.71
2023-05-13T16:17:18.359Z,23.62
2023-05-13T16:19:45.094Z,23.56
2023-05-13T16:22:27.726Z,23.48
2023-05-13T16:24:56.511Z,23.24
2023-05-13T16:27:23.443Z,23.50
2023-05-13T16:29:51.422Z,23.27
2023-05-13T16:32:17.964Z,23.19
2023-05-13T16:34:44.511Z,23.23
2023-05-13T16:37:11.124Z,23.14
2023-05-13T16:39:37.795Z,23.17
2023-05-13T16:42:04.647Z,23.16
2023-05-13T16:44:31.864Z,23.06
2023-05-13T16:46:58.493Z,23.16
2023-05-13T16:49:25.121Z,23.16
2023-05-13T16:51:51.852Z,22.98
2023-05-13T16:54:18.652Z,22.96
2023-05-13T16:56:46.804Z,22.79
2023-05-13T16:59:24.532Z,22.63
2023-05-13T17:01:52.429Z,22.68
2023-05-13T17:04:20.178Z,22.77
2023-05-13T17:06:46.704Z,22.73
2023-05-13T17:09:13.361Z,22.57
2023-05-13T17:11:40.143Z,22.62
2023-05-13T17:14:07.189Z,22.58
2023-05-13T17:16:33.908Z,22.56
2023-05-13T17:19:00.981Z,22.43
2023-05-13T17:21:27.723Z,22.51
2023-05-13T17:23:54.459Z,22.50
2023-05-13T17:26:22.292Z,22.40
2023-05-13T17:28:49.804Z,22.34
2023-05-13T17:31:17.060Z,22.30
2023-05-13T17:33:43.800Z,22.18
2023-05-13T17:36:10.956Z,22.13
2023-05-13T17:38:38.447Z,22.20
2023-05-13T17:41:05.433Z,21.95
2023-05-13T17:43:31.953Z,22.05
2023-05-13T17:45:58.889Z,22.05
2023-05-13T17:48:27.025Z,21.94
2023-05-13T17:50:53.864Z,21.74
2023-05-13T17:53:21.263Z,21.71
2023-05-13T17:55:48.868Z,21.73
2023-05-13T17:58:18.643Z,21.78
2023-05-13T18:00:45.409Z,21.69
2023-05-13T18:03:12.267Z,21.71
2023-05-13T18:05:39.142Z,21.65
2023-05-13T18:08:06.230Z,21.51
2023-05-13T18:10:32.802Z,21.52
2023-05-13T18:12:59.430Z,21.42
2023-05-13T18:15:26.001Z,21.50
2023-05-13T18:17:52.714Z,21.35
2023-05-13T18:20:19.762Z,21.37
2023-05-13T18:22:46.597Z,21.26
2023-05-13T18:25:13.277Z,21.17
2023-05-13T18:27:40.210Z,21.27
2023-05-13T18:30:07.681Z,21.22
2023-05-13T18:32:34.273Z,21.11
2023-05-13T18:35:00.784Z,21.11
2023-05-13T18:37:27.406Z,21.01
2023-05-13T18:39:54.185Z,20.93
2023-05-13T18:42:21.403Z,20.91
2023-05-13T18:44:48.466Z,20.86
2023-05-13T18:47:15.009Z,20.73
2023-05-13T18:49:41.583Z,20.71
2023-05-13T18:52:08.800Z,20.61
2023-05-13T18:54:36.253Z,20.62
2023-05-13T18:57:03.232Z,20.46
2023-05-13T18:59:29.914Z,20.46
2023-05-13T19:01:56.788Z,20.36
2023-05-13T19:04:23.558Z,20.37
2023-05-13T19:06:50.702Z,20.29
2023-05-13T19:09:17.533Z,20.30
2023-05-13T19:11:44.874Z,20.24
2023-05-13T19:14:11.408Z,20.21
2023-05-13T19:16:38.049Z,20.19
2023-05-13T19:19:04.830Z,20.16
2023-05-13T19:21:31.913Z,20.10
2023-05-13T19:23:58.861Z,20.07
2023-05-13T19:26:25.649Z,20.03
2023-05-13T19:28:52.568Z,19.94
2023-05-13T19:31:19.322Z,19.89
2023-05-13T19:33:46.493Z,19.83
2023-05-13T19:36:13.289Z,19.82
2023-05-13T19:38:40.143Z,19.70
2023-05-13T19:41:06.765Z,19.70
2023-05-13T19:43:33.420Z,19.69
2023-05-13T19:46:00.165Z,19.63
2023-05-13T19:48:29.647Z,19.51
2023-05-13T19:50:57.923Z,19.38
2023-05-13T19:53:25.029Z,19.38
2023-05-13T19:55:52.055Z,19.28
2023-05-13T19:58:18.673Z,19.26
2023-05-13T20:00:45.452Z,19.11
2023-05-13T20:03:12.226Z,19.09
2023-05-13T20:05:40.105Z,18.96
2023-05-13T20:08:07.122Z,18.92
2023-05-13T20:10:36.945Z,18.77
2023-05-13T20:13:04.917Z,18.71
2023-05-13T20:15:32.197Z,18.60
2023-05-13T20:17:58.820Z,18.53
2023-05-13T20:23:19.495Z,18.34
2023-05-13T20:25:47.192Z,18.20
2023-05-13T20:28:13.809Z,18.10
2023-05-13T20:30:42.649Z,18.04
2023-05-13T20:33:09.310Z,17.96
2023-05-13T20:35:37.073Z,17.88
2023-05-13T20:38:03.856Z,17.80
2023-05-13T20:40:30.755Z,17.69
2023-05-13T20:42:59.164Z,17.59
2023-05-13T20:45:25.834Z,17.48
2023-05-13T20:47:52.478Z,17.40
2023-05-13T20:53:14.423Z,17.28
2023-05-13T20:55:41.141Z,17.19
2023-05-13T20:58:07.693Z,17.09
2023-05-13T21:00:34.487Z,17.04
2023-05-13T21:03:01.293Z,17.04
2023-05-13T21:05:28.045Z,16.96
2023-05-13T21:07:54.681Z,16.93
2023-05-13T21:10:22.013Z,16.87
2023-05-13T21:12:48.754Z,16.81
2023-05-13T21:15:15.469Z,16.75
2023-05-13T21:17:42.354Z,16.73
2023-05-13T21:20:11.052Z,16.65
2023-05-13T21:22:37.723Z,16.62
2023-05-13T21:25:04.732Z,16.57
2023-05-13T21:27:31.352Z,16.56
2023-05-13T21:32:52.463Z,16.46
2023-05-13T21:35:19.464Z,16.44
2023-05-13T21:37:47.610Z,16.41
2023-05-13T21:43:08.270Z,16.28
2023-05-13T21:45:35.317Z,16.21
2023-05-13T21:48:02.080Z,16.15
2023-05-13T21:50:28.830Z,16.09
2023-05-13T21:52:55.906Z,16.08
2023-05-13T21:55:22.693Z,16.00
2023-05-13T21:57:49.422Z,15.94
2023-05-13T22:00:19.282Z,15.89
2023-05-13T22:02:46.298Z,15.86
2023-05-13T22:05:13.425Z,15.80
2023-05-13T22:07:40.267Z,15.74
2023-05-13T22:10:07.873Z,15.70
2023-05-13T22:12:34.674Z,15.66
2023-05-13T22:15:01.346Z,15.61
2023-05-13T22:17:28.087Z,15.54
2023-05-13T22:19:54.796Z,15.54
2023-05-13T22:22:21.623Z,15.49
2023-05-13T22:24:48.277Z,15.43
2023-05-13T22:27:15.078Z,15.37
2023-05-13T22:29:41.576Z,15.30
2023-05-13T22:32:08.450Z,15.25
2023-05-13T22:34:35.264Z,15.18
2023-05-13T22:37:02.027Z,15.14
2023-05-13T22:39:28.590Z,15.09
2023-05-13T22:41:56.065Z,15.00
2023-05-13T22:44:24.812Z,14.97
2023-05-13T22:46:52.835Z,14.90
2023-05-13T22:49:19.571Z,14.87
2023-05-13T22:51:47.899Z,14.83
2023-05-13T22:54:14.554Z,14.81
2023-05-13T22:56:41.050Z,14.75
2023-05-13T22:59:07.664Z,14.70
2023-05-13T23:01:34.575Z,14.67
2023-05-13T23:04:01.612Z,14.62
2023-05-13T23:06:28.369Z,14.51
2023-05-13T23:08:54.977Z,14.48
2023-05-13T23:11:21.736Z,14.45
2023-05-13T23:13:48.171Z,14.41
2023-05-13T23:16:14.772Z,14.36
2023-05-13T23:18:41.411Z,14.32
2023-05-13T23:21:09.200Z,14.29
2023-05-13T23:23:36.419Z,14.26
2023-05-13T23:26:05.735Z,14.22
2023-05-13T23:28:32.948Z,14.18
2023-05-13T23:30:59.639Z,14.11
2023-05-13T23:33:26.257Z,14.09
2023-05-13T23:35:55.580Z,14.00
2023-05-13T23:38:23.004Z,13.95
2023-05-13T23:40:49.651Z,13.92
2023-05-13T23:43:16.413Z,13.89
2023-05-13T23:45:43.045Z,13.89
2023-05-13T23:48:09.914Z,13.84
2023-05-13T23:50:36.538Z,13.80
2023-05-13T23:53:03.240Z,13.76
2023-05-13T23:55:29.875Z,13.70
2023-05-13T23:57:56.472Z,13.64
